Time;durP1;ratioP1;P1;durP2;ratioP2;P2;SDS_P1;SDS_P2;PMS_P1;PMS_P2;Temp;Humidity;BMP_temperature;BMP_pressure;BME280_temperature;BME280_humidity;BME280_pressure;Samples;Min_cycle;Max_cycle;Signal;HPM_P1;HPM_P2
2023/07/24 07:23:04;;;;;;;4.00;3.60;;;;;;;-145.79;100.00;76330.31;5321541;27;1222520;-79
2023/07/24 07:25:36;;;;;;;3.70;3.40;;;;;;;-145.79;100.00;76328.19;5330771;27;20028;-80
2023/07/24 07:28:07;;;;;;;3.50;3.20;;;;;;;-145.79;99.82;76330.31;5328007;28;20027;-79
2023/07/24 07:30:39;;;;;;;4.45;3.38;;;;;;;-145.79;99.57;76332.44;5330556;28;20030;-80
2023/07/24 07:33:10;;;;;;;3.35;3.05;;;;;;;-145.79;99.08;76323.97;5330481;28;20360;-80
2023/07/24 07:35:42;;;;;;;3.40;3.10;;;;;;;-145.79;98.74;76326.06;5330864;28;20035;-80
2023/07/24 07:38:14;;;;;;;7.50;6.80;;;;;;;-145.79;98.25;76302.75;5327823;28;20041;-80
2023/07/24 07:40:45;;;;;;;3.53;3.22;;;;;;;-145.79;98.74;76292.16;5341700;28;20027;-80
2023/07/24 07:43:16;;;;;;;3.47;3.00;;;;;;;-145.79;98.18;76298.53;5329398;27;20067;-80
2023/07/24 07:45:48;;;;;;;3.47;3.13;;;;;;;-145.79;98.01;76275.22;5326875;28;20398;-81
2023/07/24 07:48:19;;;;;;;3.80;3.45;;;;;;;-145.79;99.02;76262.50;5333891;28;20023;-80
2023/07/24 07:50:51;;;;;;;3.90;3.60;;;;;;;-145.79;99.57;76245.56;5334762;27;20116;-80
2023/07/24 07:53:23;;;;;;;4.30;3.15;;;;;;;-145.79;98.02;76251.91;5327958;28;20077;-80
2023/07/24 07:55:59;;;;;;;3.47;3.17;;;;;;;-145.79;97.87;76245.56;5337475;27;20028;-80
2023/07/24 07:58:30;;;;;;;4.53;3.60;;;;;;;-145.79;97.37;76228.59;5343330;27;20019;-80
2023/07/24 08:01:05;;;;;;;4.63;3.95;;;;;;;-145.79;97.62;76228.59;5326386;28;20027;-81
2023/07/24 08:03:37;;;;;;;5.13;4.10;;;;;;;-145.79;97.95;76226.47;5336897;27;20023;-74
2023/07/24 08:06:08;;;;;;;4.10;3.70;;;;;;;-145.79;95.91;76241.31;5330275;28;20096;-74
2023/07/24 08:08:40;;;;;;;4.22;3.83;;;;;;;-145.79;95.96;76245.56;5333440;27;20449;-74
2023/07/24 08:11:11;;;;;;;4.88;4.15;;;;;;;-145.79;94.92;76249.78;5332790;27;20024;-73
2023/07/24 08:13:42;;;;;;;4.32;3.92;;;;;;;-145.79;94.96;76234.97;5334945;28;20027;-74
2023/07/24 08:16:20;;;;;;;4.38;3.97;;;;;;;-145.79;94.87;76226.47;5332299;27;20059;-74
2023/07/24 08:18:52;;;;;;;5.03;4.30;;;;;;;-145.79;94.36;76224.38;5335571;28;20461;-80
2023/07/24 08:21:23;;;;;;;4.97;4.40;;;;;;;-145.79;93.08;76232.84;5336501;27;20206;-79
2023/07/24 08:23:54;;;;;;;5.60;4.50;;;;;;;-145.79;93.96;76211.66;5330188;28;20051;-79
2023/07/24 08:26:26;;;;;;;8.27;7.50;;;;;;;-145.79;94.94;76207.41;5339879;28;20050;-79
2023/07/24 08:28:57;;;;;;;12.25;11.20;;;;;;;-145.79;95.16;76203.16;5339301;28;20028;-79
2023/07/24 08:31:29;;;;;;;8.23;5.60;;;;;;;-145.79;95.72;76198.94;5342597;28;20038;-79
2023/07/24 08:34:00;;;;;;;5.25;4.82;;;;;;;-145.79;95.64;76198.94;5334276;27;20035;-80
2023/07/24 08:36:32;;;;;;;5.72;5.10;;;;;;;-145.79;95.23;76203.16;5331751;28;20463;-80
2023/07/24 08:39:03;;;;;;;6.25;5.68;;;;;;;-145.79;94.65;76207.41;5332195;28;20027;-80
2023/07/24 08:41:37;;;;;;;5.88;5.38;;;;;;;-145.79;94.63;76203.16;5336121;28;20063;-80
2023/07/24 08:44:09;;;;;;;5.95;5.28;;;;;;;-145.79;94.50;76207.41;5332527;28;20085;-80
2023/07/24 08:46:41;;;;;;;6.85;5.95;;;;;;;-145.79;95.31;76211.66;5332738;28;20419;-79
2023/07/24 08:49:15;;;;;;;6.03;5.50;;;;;;;-145.79;96.07;76192.56;5329715;28;20402;-78
2023/07/24 08:51:47;;;;;;;8.07;6.70;;;;;;;-145.79;94.79;76194.69;5320735;28;20047;-80
2023/07/24 08:54:19;;;;;;;5.20;4.80;;;;;;;-145.79;94.60;76196.81;5326426;28;20028;-79
2023/07/24 08:56:52;;;;;;;6.20;5.60;;;;;;;-145.79;95.08;76179.88;5326467;28;20034;-80
2023/07/24 08:59:23;;;;;;;7.53;5.82;;;;;;;-145.79;94.18;76186.22;5329035;28;20032;-80
2023/07/24 09:01:55;;;;;;;9.50;6.13;;;;;;;-145.79;94.64;76169.25;5329318;28;20060;-80
2023/07/24 09:04:27;;;;;;;6.43;5.93;;;;;;;-145.79;95.01;76160.78;5332021;28;20069;-81
2023/07/24 09:06:58;;;;;;;8.07;7.40;;;;;;;-145.79;95.06;76148.06;5335976;28;20031;-80
2023/07/24 09:09:31;;;;;;;5.93;5.30;;;;;;;-145.79;94.22;76148.06;5327327;28;20031;-79
2023/07/24 09:12:02;;;;;;;5.28;4.78;;;;;;;-145.79;93.68;76137.47;5328496;28;20101;-79
2023/07/24 09:14:34;;;;;;;6.18;5.57;;;;;;;-145.79;92.61;76116.28;5315053;28;20059;-79
2023/07/24 09:17:07;;;;;;;6.70;5.25;;;;;;;-145.79;93.11;76097.22;5317367;28;20482;-80
2023/07/24 09:19:39;;;;;;;7.25;5.30;;;;;;;-145.79;92.64;76088.75;5321265;28;20031;-77
2023/07/24 09:22:14;;;;;;;5.35;4.95;;;;;;;-145.79;92.08;76071.78;5319726;28;20066;-80
2023/07/24 09:24:52;;;;;;;5.45;4.93;;;;;;;-145.79;91.45;76067.56;5321478;28;20418;-81
2023/07/24 09:27:27;;;;;;;6.30;5.70;;;;;;;-145.79;92.63;76067.56;5317606;28;20024;-80
2023/07/24 09:29:58;;;;;;;7.03;6.32;;;;;;;-145.79;92.94;76105.69;5321877;28;20059;-75
2023/07/24 09:32:31;;;;;;;5.72;5.22;;;;;;;-145.79;93.97;76107.81;5314987;28;20028;-74
2023/07/24 09:35:03;;;;;;;5.60;5.10;;;;;;;-145.79;92.85;76114.19;5318001;28;20028;-74
2023/07/24 09:37:34;;;;;;;4.72;4.30;;;;;;;-145.79;92.87;76112.06;5317143;28;20102;-80
2023/07/24 09:40:06;;;;;;;4.30;3.90;;;;;;;-145.79;91.04;76124.78;5318542;28;20051;-80
2023/07/24 09:42:39;;;;;;;5.72;4.40;;;;;;;-145.79;91.69;76118.41;5316338;28;20027;-74
2023/07/24 09:45:11;;;;;;;4.57;4.13;;;;;;;-145.79;92.61;76099.34;5312227;28;20024;-74
2023/07/24 09:47:42;;;;;;;4.88;3.75;;;;;;;-145.79;92.28;76101.47;5313859;28;20073;-74
2023/07/24 09:50:14;;;;;;;3.78;3.47;;;;;;;-145.79;90.11;76109.94;5324210;28;20099;-78
2023/07/24 09:52:47;;;;;;;4.75;4.13;;;;;;;-145.79;92.07;76088.75;5316713;28;20023;-80
2023/07/24 09:55:29;;;;;;;4.10;3.80;;;;;;;-145.79;91.12;76084.50;5318401;28;20404;-79
2023/07/24 09:58:01;;;;;;;24.67;22.38;;;;;;;-145.79;91.24;76092.97;5316335;28;20020;-79
2023/07/24 10:00:33;;;;;;;6.75;6.13;;;;;;;-145.79;91.78;76080.28;5313563;28;20544;-80
2023/07/24 10:03:04;;;;;;;4.60;4.20;;;;;;;-145.79;91.22;76080.28;5313545;28;20104;-80
2023/07/24 10:05:36;;;;;;;5.85;4.32;;;;;;;-145.79;91.46;76080.28;5313280;28;20043;-80
2023/07/24 10:08:08;;;;;;;7.78;6.95;;;;;;;-145.79;90.68;76090.88;5314366;28;20028;-79
2023/07/24 10:10:40;;;;;;;4.32;3.90;;;;;;;-145.79;91.45;76090.88;5313113;28;20027;-78
2023/07/24 10:13:14;;;;;;;4.20;3.90;;;;;;;-145.79;91.37;76092.97;5321939;28;20032;-79
2023/07/24 10:15:48;;;;;;;5.77;4.63;;;;;;;-145.79;91.46;76095.09;5317454;28;20027;-80
2023/07/24 10:18:26;;;;;;;5.63;4.43;;;;;;;-145.79;92.53;76088.75;5314727;28;20114;-80
2023/07/24 10:21:03;;;;;;;4.35;3.95;;;;;;;-145.79;92.58;76082.38;5312896;28;20093;-80
2023/07/24 10:23:42;;;;;;;4.28;3.80;;;;;;;-145.79;91.02;76088.75;5313221;28;20398;-80
2023/07/24 10:26:15;;;;;;;4.47;4.07;;;;;;;-145.79;90.20;76099.34;5308602;28;20055;-79
2023/07/24 10:28:48;;;;;;;4.68;3.72;;;;;;;-145.79;90.73;76095.09;5316118;28;20102;-79
2023/07/24 10:31:21;;;;;;;4.13;3.72;;;;;;;-145.79;90.89;76105.69;5317798;28;20085;-80
2023/07/24 10:33:52;;;;;;;34.50;31.55;;;;;;;-145.79;89.34;76101.47;5312774;28;20165;-80
2023/07/24 10:36:24;;;;;;;8.02;7.28;;;;;;;-145.79;88.32;76097.22;5312945;28;20107;-80
2023/07/24 10:38:56;;;;;;;4.93;4.22;;;;;;;-145.79;88.39;76095.09;5315475;28;20019;-79
2023/07/24 10:41:36;;;;;;;4.60;4.20;;;;;;;-145.79;88.52;76097.22;5325235;28;20471;-78
2023/07/24 10:44:07;;;;;;;4.93;4.50;;;;;;;-145.79;87.97;76095.09;5308104;28;20020;-78
2023/07/24 10:46:40;;;;;;;4.75;4.20;;;;;;;-145.79;87.85;76103.56;5319805;27;20520;-78
2023/07/24 10:49:12;;;;;;;4.10;3.70;;;;;;;-145.79;87.57;76097.22;5313988;28;20028;-78
2023/07/24 10:51:43;;;;;;;3.67;3.38;;;;;;;-145.79;87.92;76088.75;5316887;28;20379;-77
2023/07/24 10:54:21;;;;;;;4.25;3.70;;;;;;;-145.79;88.22;76078.16;5311137;28;20093;-79
2023/07/24 10:57:02;;;;;;;4.30;3.90;;;;;;;-145.79;88.08;76071.78;5312693;28;20430;-79
2023/07/24 10:59:39;;;;;;;4.95;4.55;;;;;;;-145.79;88.65;76088.75;5316234;28;20111;-79
2023/07/24 11:02:11;;;;;;;5.05;4.35;;;;;;;-145.79;87.95;76076.03;5315697;28;20073;-78
2023/07/24 11:04:42;;;;;;;3.63;3.33;;;;;;;-145.79;84.32;76050.59;5317274;28;20016;-79
2023/07/24 11:07:14;;;;;;;4.68;4.28;;;;;;;-145.79;87.07;76042.13;5313660;28;20024;-79
2023/07/24 11:09:46;;;;;;;4.30;4.00;;;;;;;-145.79;87.23;76031.53;5317667;28;20028;-80
2023/07/24 11:12:17;;;;;;;4.30;4.00;;;;;;;-145.79;84.52;76012.47;5313956;28;20568;-80
2023/07/24 11:14:50;;;;;;;4.70;4.30;;;;;;;-145.79;84.63;76008.22;5315480;28;20032;-79
2023/07/24 11:17:22;;;;;;;5.57;5.07;;;;;;;-145.79;85.72;76012.47;5316122;28;20020;-79
2023/07/24 11:19:53;;;;;;;6.88;6.20;;;;;;;-145.79;86.68;76020.94;5310698;28;20164;-79
2023/07/24 11:22:26;;;;;;;7.47;5.78;;;;;;;-145.79;84.95;76033.66;5312245;28;20075;-80
2023/07/24 11:25:01;;;;;;;5.60;5.15;;;;;;;-145.79;82.54;76012.47;5316775;28;20063;-78
2023/07/24 11:27:33;;;;;;;;;;;;;;;-145.79;83.30;75993.41;5313719;28;20036;-77
2023/07/24 11:30:05;;;;;;;4.75;4.35;;;;;;;-145.79;80.64;75989.16;5322436;28;20105;-78
2023/07/24 11:32:42;;;;;;;5.10;4.60;;;;;;;-145.79;81.81;75995.50;5315341;28;20563;-78
2023/07/24 11:35:14;;;;;;;4.18;3.88;;;;;;;-145.79;81.76;75980.69;5309292;28;20117;-77
2023/07/24 11:37:46;;;;;;;5.50;4.45;;;;;;;-145.79;82.34;75997.63;5314701;28;20024;-77
2023/07/24 11:40:19;;;;;;;6.43;5.85;;;;;;;-145.79;81.32;75993.41;5311163;28;20051;-78
2023/07/24 11:42:51;;;;;;;5.35;4.95;;;;;;;-145.79;80.97;75991.28;5309787;28;20399;-77
2023/07/24 11:45:22;;;;;;;4.72;4.28;;;;;;;-145.79;80.36;75995.50;5309437;28;20057;-78
2023/07/24 11:47:54;;;;;;;5.07;4.68;;;;;;;-145.79;80.49;75995.50;5306185;28;20031;-78
2023/07/24 11:50:39;;;;;;;;;;;;;;;;;;;;;
2023/07/24 11:53:28;;;;;;;6.65;5.30;;;;;;;-145.79;79.79;75987.03;5305788;28;20049;-77
2023/07/24 11:56:02;;;;;;;6.22;5.72;;;;;;;-145.79;80.33;75972.22;5312681;28;20074;-77
2023/07/24 11:58:33;;;;;;;6.65;6.05;;;;;;;-145.79;79.26;75961.63;5316006;28;20513;-77
2023/07/24 12:01:04;;;;;;;5.60;5.10;;;;;;;-145.79;78.52;75936.19;5313865;28;20031;-77
2023/07/24 12:03:36;;;;;;;6.25;5.75;;;;;;;-145.79;78.84;75929.81;5310381;28;20027;-77
2023/07/24 12:06:15;;;;;;;5.95;5.47;;;;;;;-145.79;78.90;75917.13;5312971;28;20032;-76
2023/07/24 12:08:47;;;;;;;8.30;7.03;;;;;;;-145.79;79.44;75923.47;5318048;28;20023;-76
2023/07/24 12:11:18;;;;;;;6.50;6.00;;;;;;;-145.79;78.98;75919.22;5318386;28;20035;-77
2023/07/24 12:13:50;;;;;;;5.28;4.85;;;;;;;-145.79;76.35;75898.03;5319833;28;20020;-78
2023/07/24 12:16:21;;;;;;;7.28;6.68;;;;;;;-145.79;76.65;75910.75;5310563;28;20043;-80
2023/07/24 12:18:52;;;;;;;5.65;5.13;;;;;;;-145.79;76.75;75900.16;5323444;28;20115;-79
2023/07/24 12:21:24;;;;;;;6.63;6.03;;;;;;;-145.79;76.33;75904.41;5317397;28;20040;-79
2023/07/24 12:23:55;;;;;;;6.00;5.35;;;;;;;-145.79;74.82;75887.44;5321102;28;20032;-77
2023/07/24 12:26:27;;;;;;;6.30;5.80;;;;;;;-145.79;77.07;75904.41;5316629;28;20055;-78
2023/07/24 12:29:00;;;;;;;6.22;5.72;;;;;;;-145.79;75.76;75893.81;5314114;28;20028;-80
2023/07/24 12:31:31;;;;;;;6.90;6.35;;;;;;;-145.79;76.82;75881.09;5317388;28;20020;-80
2023/07/24 12:34:03;;;;;;;6.75;6.05;;;;;;;-145.79;74.76;75851.44;5307291;28;20028;-78
2023/07/24 12:36:34;;;;;;;5.78;5.28;;;;;;;-145.79;74.07;75834.47;5315219;28;20051;-78
2023/07/24 12:39:05;;;;;;;20.88;19.15;;;;;;;-145.79;74.40;75862.03;5314547;28;20024;-79
2023/07/24 12:41:37;;;;;;;12.85;11.73;;;;;;;-145.79;76.01;75868.38;5315426;28;20487;-80
2023/07/24 12:44:08;;;;;;;97.13;88.60;;;;;;;-145.79;78.88;75866.25;5318853;27;20099;-76
2023/07/24 12:46:39;;;;;;;9.27;8.35;;;;;;;-145.79;77.60;75876.84;5318082;28;20043;-79
2023/07/24 12:49:11;;;;;;;7.53;6.88;;;;;;;-145.79;77.44;75859.91;5319717;28;20098;-80
2023/07/24 12:51:42;;;;;;;7.97;7.28;;;;;;;-145.79;78.77;75881.09;5310480;28;20567;-76
2023/07/24 12:54:14;;;;;;;8.30;7.43;;;;;;;-145.79;80.00;75872.63;5317844;28;20062;-79
2023/07/24 12:56:46;;;;;;;8.00;7.32;;;;;;;-145.79;78.17;75851.44;5318640;28;20526;-78
2023/07/24 12:59:18;;;;;;;9.07;8.38;;;;;;;-145.79;80.80;75828.13;5314770;28;20357;-78
2023/07/24 13:01:49;;;;;;;8.32;7.70;;;;;;;-145.79;80.68;75806.94;5323117;28;20053;-76
2023/07/24 13:04:23;;;;;;;8.35;7.65;;;;;;;-145.79;77.87;75800.56;5319187;27;20110;-76
2023/07/24 13:06:55;;;;;;;7.90;7.00;;;;;;;-145.79;75.95;75775.16;5317884;28;20386;-75
2023/07/24 13:09:27;;;;;;;10.55;9.07;;;;;;;-145.79;75.38;75762.44;5318097;28;20024;-75
2023/07/24 13:11:58;;;;;;;12.27;11.10;;;;;;;-145.79;72.96;75756.09;5314050;28;20020;-74
2023/07/24 13:14:30;;;;;;;9.13;8.25;;;;;;;-145.79;70.71;75726.41;5317030;28;20413;-80
2023/07/24 13:17:01;;;;;;;8.07;7.30;;;;;;;-145.79;69.57;75709.47;5318750;28;20019;-79
2023/07/24 13:19:33;;;;;;;6.90;6.35;;;;;;;-145.79;69.66;75681.94;5310619;28;20032;-80
2023/07/24 13:22:04;;;;;;;6.47;5.97;;;;;;;-145.79;70.26;75664.97;5317173;28;20100;-80
2023/07/24 13:24:36;;;;;;;8.25;7.20;;;;;;;-145.79;66.80;75686.16;5314960;27;20115;-78
2023/07/24 13:27:07;;;;;;;7.85;7.13;;;;;;;-145.79;68.12;75694.63;5318260;28;20032;-79
2023/07/24 13:29:39;;;;;;;8.45;7.45;;;;;;;-145.79;70.87;75713.72;5315311;28;20028;-79
2023/07/24 13:32:10;;;;;;;8.40;7.07;;;;;;;-145.79;71.43;75732.78;5313969;28;20115;-79
2023/07/24 13:34:41;;;;;;;8.45;6.80;;;;;;;-145.79;72.27;75747.59;5315276;28;20043;-78
2023/07/24 13:37:13;;;;;;;7.88;7.18;;;;;;;-145.79;72.81;75792.09;5319946;28;20028;-78
2023/07/24 13:39:44;;;;;;;9.95;9.10;;;;;;;-145.79;73.29;75794.22;5315760;28;20125;-80
2023/07/24 13:42:15;;;;;;;7.57;6.88;;;;;;;-145.79;73.56;75800.56;5317107;28;20363;-79
2023/07/24 13:44:47;;;;;;;22.60;20.80;;;;;;;-145.79;73.88;75809.06;5315897;28;20027;-81
2023/07/24 13:47:18;;;;;;;8.43;7.57;;;;;;;-145.79;73.48;75815.41;5313741;28;20149;-81
2023/07/24 13:49:49;;;;;;;8.07;7.28;;;;;;;-145.79;73.91;75826.00;5321301;28;20408;-80
2023/07/24 13:52:21;;;;;;;7.82;7.13;;;;;;;-145.79;74.91;75851.44;5316075;28;20034;-80
2023/07/24 13:54:52;;;;;;;10.48;7.47;;;;;;;-145.79;75.02;75866.25;5317313;28;20431;-81
2023/07/24 13:57:24;;;;;;;10.82;8.55;;;;;;;-145.79;77.16;75900.16;5312974;28;20077;-80
2023/07/24 13:59:55;;;;;;;15.18;11.57;;;;;;;-145.79;77.53;75923.47;5317037;28;20040;-80
2023/07/24 14:02:27;;;;;;;12.63;10.00;;;;;;;-145.79;77.73;75927.72;5317347;28;20157;-75
2023/07/24 14:04:58;;;;;;;8.10;7.40;;;;;;;-145.79;78.91;75957.38;5316561;28;20031;-75
2023/07/24 14:07:29;;;;;;;6.88;6.22;;;;;;;-145.79;79.22;75965.84;5313141;28;20062;-75
2023/07/24 14:10:00;;;;;;;8.00;6.95;;;;;;;-145.79;80.81;75995.50;5321179;28;20467;-79
2023/07/24 14:12:32;;;;;;;7.45;6.82;;;;;;;-145.79;81.11;75987.03;5321313;28;20107;-75
2023/07/24 14:15:04;;;;;;;7.05;6.35;;;;;;;-145.79;81.34;75991.28;5313217;28;20028;-75
2023/07/24 14:17:36;;;;;;;6.68;6.00;;;;;;;-145.79;80.92;75982.81;5316237;28;20107;-74
2023/07/24 14:20:08;;;;;;;7.07;6.35;;;;;;;-145.79;80.52;75972.22;5317302;28;20157;-75
2023/07/24 14:22:39;;;;;;;7.88;5.95;;;;;;;-145.79;79.56;75927.72;5312990;28;20085;-74
2023/07/24 14:25:10;;;;;;;7.88;5.82;;;;;;;-145.79;77.89;75876.84;5316649;28;20472;-74
2023/07/24 14:27:42;;;;;;;6.85;5.60;;;;;;;-145.79;76.47;75830.25;5320883;28;20028;-77
2023/07/24 14:30:15;;;;;;;6.20;5.60;;;;;;;-145.79;77.28;75796.34;5320323;28;20046;-79
2023/07/24 14:32:46;;;;;;;6.25;5.65;;;;;;;-145.79;75.65;75758.19;5312758;28;20141;-79
2023/07/24 14:35:18;;;;;;;8.93;8.13;;;;;;;-145.79;73.80;75739.13;5320626;28;20027;-79
2023/07/24 14:37:52;;;;;;;6.00;4.20;;;;;;;-145.79;71.04;75732.78;5315221;28;20026;-79
2023/07/24 14:40:23;;;;;;;4.82;4.32;;;;;;;-145.79;72.38;75728.53;5318302;28;20035;-79
2023/07/24 14:42:54;;;;;;;4.32;3.92;;;;;;;-145.79;71.21;75715.81;5315558;28;20382;-79
2023/07/24 14:45:26;;;;;;;5.65;4.88;;;;;;;-145.79;69.97;75715.81;5324594;28;20036;-79
2023/07/24 14:47:57;;;;;;;5.97;5.07;;;;;;;-145.79;71.72;75728.53;5311394;28;20023;-81
2023/07/24 14:50:29;;;;;;;4.75;4.25;;;;;;;-145.79;70.69;75730.66;5316469;28;20024;-79
2023/07/24 14:53:00;;;;;;;5.20;4.32;;;;;;;-145.79;70.95;75745.50;5313311;28;20054;-80
2023/07/24 14:55:31;;;;;;;8.38;5.55;;;;;;;-145.79;71.44;75749.72;5312601;28;20142;-79
2023/07/24 14:58:03;;;;;;;10.68;9.55;;;;;;;-145.79;70.82;75724.31;5314593;28;20483;-79
2023/07/24 15:00:34;;;;;;;7.18;5.78;;;;;;;-145.79;70.20;75713.72;5315824;28;20020;-79
2023/07/24 15:03:05;;;;;;;6.20;5.18;;;;;;;-145.79;71.74;75690.41;5316317;28;20032;-79
2023/07/24 15:05:37;;;;;;;5.85;5.25;;;;;;;-145.79;71.83;75660.75;5317674;27;20479;-80
2023/07/24 15:08:08;;;;;;;5.63;5.10;;;;;;;-145.79;68.77;75690.41;5313895;28;20036;-80
2023/07/24 15:10:39;;;;;;;98.25;17.02;;;;;;;-145.79;67.90;75707.34;5312313;28;20498;-79
2023/07/24 15:13:11;;;;;;;30.70;15.63;;;;;;;-145.79;67.42;75698.88;5320790;28;20106;-81
2023/07/24 15:15:42;;;;;;;6.65;5.03;;;;;;;-145.79;68.12;75713.72;5317184;28;20032;-79
2023/07/24 15:18:13;;;;;;;5.20;4.70;;;;;;;-145.79;66.24;75732.78;5316843;28;20038;-80
2023/07/24 15:20:45;;;;;;;7.07;4.72;;;;;;;-145.79;66.28;75720.06;5316186;28;20027;-80
2023/07/24 15:23:17;;;;;;;7.10;4.88;;;;;;;-145.79;66.41;75743.38;5312322;28;20230;-80
2023/07/24 15:25:49;;;;;;;5.70;5.18;;;;;;;-145.79;66.11;75756.09;5316841;28;20039;-80
2023/07/24 15:28:20;;;;;;;5.38;4.88;;;;;;;-145.79;66.45;75753.97;5315240;28;20471;-79
2023/07/24 15:30:51;;;;;;;8.23;6.07;;;;;;;-145.79;65.94;75766.69;5312865;28;20499;-80
2023/07/24 15:33:23;;;;;;;6.88;5.32;;;;;;;-145.79;65.85;75787.88;5312479;28;20052;-75
2023/07/24 15:35:54;;;;;;;5.55;5.05;;;;;;;-145.79;66.82;75783.63;5309302;28;20024;-75
2023/07/24 15:38:25;;;;;;;9.40;5.70;;;;;;;-145.79;67.47;75796.34;5324642;28;20080;-75
2023/07/24 15:40:57;;;;;;;4.68;4.18;;;;;;;-145.79;66.44;75842.97;5311451;28;20101;-75
2023/07/24 15:43:28;;;;;;;6.43;5.45;;;;;;;-145.79;68.56;75855.66;5313412;28;20051;-74
2023/07/24 15:45:59;;;;;;;6.55;5.28;;;;;;;-145.79;70.22;75876.84;5319676;28;20027;-80
2023/07/24 15:48:31;;;;;;;9.63;6.10;;;;;;;-145.79;71.49;75904.41;5319954;28;20022;-80
2023/07/24 15:51:02;;;;;;;112.90;102.25;;;;;;;-145.79;74.01;75944.66;5317420;28;20032;-80
2023/07/24 15:53:34;;;;;;;8.27;7.15;;;;;;;-145.79;75.83;75963.72;5320333;28;20102;-80
2023/07/24 15:56:06;;;;;;;6.85;5.57;;;;;;;-145.79;78.23;75965.84;5316271;28;20027;-80
2023/07/24 15:58:37;;;;;;;7.22;6.47;;;;;;;-145.79;77.02;75982.81;5317968;28;20020;-80
2023/07/24 16:01:09;;;;;;;7.30;6.60;;;;;;;-145.79;77.45;76008.22;5320609;28;20089;-80
2023/07/24 16:03:42;;;;;;;7.47;6.63;;;;;;;-145.79;79.74;75995.50;5333578;28;20023;-81
2023/07/24 16:06:15;;;;;;;7.90;7.10;;;;;;;-145.79;78.56;75982.81;5323389;28;20066;-81
2023/07/24 16:08:51;;;;;;;7.05;6.53;;;;;;;-145.79;79.21;75978.56;5330405;28;20111;-82
2023/07/24 16:11:23;;;;;;;7.47;6.78;;;;;;;-145.79;79.15;75987.03;5322540;28;20180;-82
2023/07/24 16:13:54;;;;;;;8.70;7.35;;;;;;;-145.79;81.34;75959.50;5323108;28;20027;-82
2023/07/24 16:16:26;;;;;;;7.65;6.50;;;;;;;-145.79;80.06;75959.50;5325304;28;20138;-82
2023/07/24 16:19:30;;;;;;;8.23;6.82;;;;;;;-145.79;80.54;75948.91;5324817;28;20039;-81
2023/07/24 16:22:01;;;;;;;7.00;6.30;;;;;;;-145.79;79.69;75959.50;5282812;28;20486;-81
2023/07/24 16:24:33;;;;;;;52.65;47.78;;;;;;;-145.79;81.07;75959.50;5334907;28;20023;-83
2023/07/24 16:27:04;;;;;;;11.00;10.00;;;;;;;-145.79;79.85;75970.09;5343898;28;20026;-81
2023/07/24 16:29:36;;;;;;;6.15;5.55;;;;;;;-145.79;79.55;75987.03;5331099;28;20024;-81
2023/07/24 16:32:07;;;;;;;6.68;4.90;;;;;;;-145.79;79.36;75995.50;5328626;28;20040;-81
2023/07/24 16:34:39;;;;;;;5.15;4.28;;;;;;;-145.79;78.78;75957.38;5329193;28;20111;-82
2023/07/24 16:37:10;;;;;;;4.55;3.92;;;;;;;-145.79;77.54;75946.78;5327674;28;20077;-82
2023/07/24 16:39:45;;;;;;;5.60;3.80;;;;;;;-145.79;77.98;75934.06;5320301;28;20434;-83
2023/07/24 16:42:16;;;;;;;5.28;4.10;;;;;;;-145.79;75.88;75940.41;5321250;28;20027;-81
2023/07/24 16:44:47;;;;;;;6.18;3.90;;;;;;;-145.79;77.30;75910.75;5327036;28;20024;-83
2023/07/24 16:47:19;;;;;;;5.88;3.63;;;;;;;-145.79;74.62;75919.22;5313721;28;20024;-81
2023/07/24 16:49:50;;;;;;;5.60;3.17;;;;;;;-145.79;75.01;75908.63;5319568;28;20024;-81
2023/07/24 16:52:22;;;;;;;8.73;4.18;;;;;;;-145.79;71.57;75904.41;5318930;28;20035;-82
